KSAW

Sawyer International Airport

Marquette, Michigan, USA
METAR KSAW 160045Z 18010KT 10SM SKC 00/M03 A3012
Observed Flight Rules
Dec-16 @ 00:45 UTC (56 minutes ago) Visual Flight Rules
Wind Visibility Clouds
180° at 10 knots 10 miles
  • Clear skies
Temperatures Readings
Current 0°C / 32°F
Dewpoint -3°C / 27°F
Humidity 80%
Altimeter 30.12" Hg
Pressure 1020 hPa
Elevation 372
METAR KSAW 160045Z 18010KT 10SM SKC 00/M03 A3012
Observed Flight Rules
Dec-16 @ 00:45 UTC
(56 minutes ago)
VFR
Wind Visibility
180° at 10 knots 10 miles
Clouds
  • Clear skies
Temperature Dewpoint
0°C / 32°F -3°C / 27°F
Humidity Altimeter Pressure
80% 30.12" Hg 1020 hPa